Terminal Aerodrome Forecast
Issued by NWS

Current Version | Previous Version | Text Only | Print | Product List | Glossary Off
Versions: 1 2 3 4 5 6 7 8 9 10 11 12 13 14 15 16 17 18 19 20 21 22 23 24 25 26 27 28 29 30 31 32 33 34 35 36 37 38 39

000
FTUS41 KRNK 160520
TAFLWB
TAF
KLWB 160520Z 1606/1706 00000KT P6SM OVC200
     FM160800 00000KT P6SM OVC050
     FM161200 00000KT 3SM -SHRA BR OVC015
     FM161600 22004KT P6SM OVC020
     FM162000 26006KT P6SM OVC028=

USA.gov is the U.S. government's official web portal to all federal, state and local government web resources and services.